Time;durP1;ratioP1;P1;durP2;ratioP2;P2;SDS_P1;SDS_P2;PMS_P1;PMS_P2;Temp;Humidity;BMP_temperature;BMP_pressure;BME280_temperature;BME280_humidity;BME280_pressure;Samples;Min_cycle;Max_cycle;Signal;HPM_P1;HPM_P2
2021/12/06 00:01:16;;;;;;;32.67;20.08;;;;;;;4.12;100.00;98690.19;5073731;28;20272;-76
2021/12/06 00:03:46;;;;;;;27.52;16.00;;;;;;;4.08;100.00;98691.25;5074323;28;20208;-77
2021/12/06 00:06:15;;;;;;;24.15;14.63;;;;;;;4.05;100.00;98690.53;5074090;28;20207;-77
2021/12/06 00:08:41;;;;;;;24.17;14.68;;;;;;;3.99;100.00;98691.69;5074285;28;20196;-77
2021/12/06 00:11:08;;;;;;;21.65;15.10;;;;;;;4.16;100.00;98694.44;5074373;28;20197;-76
2021/12/06 00:13:38;;;;;;;12.70;9.10;;;;;;;3.84;100.00;98700.38;5073737;28;20205;-77
2021/12/06 00:16:08;;;;;;;9.95;7.20;;;;;;;3.70;100.00;98700.97;5074331;28;20258;-77
2021/12/06 00:18:35;;;;;;;8.45;7.55;;;;;;;3.40;100.00;98704.06;5074074;28;20237;-77
2021/12/06 00:21:03;;;;;;;9.65;7.20;;;;;;;3.16;100.00;98705.97;5074031;28;20213;-77
2021/12/06 00:23:30;;;;;;;9.38;7.97;;;;;;;3.15;100.00;98709.56;5074091;28;20191;-76
2021/12/06 00:25:58;;;;;;;11.93;8.30;;;;;;;3.09;100.00;98716.00;5073968;28;20193;-76
2021/12/06 00:28:25;;;;;;;10.90;8.90;;;;;;;3.14;100.00;98718.47;5073565;28;20199;-76
2021/12/06 00:30:54;;;;;;;10.20;7.90;;;;;;;3.18;100.00;98730.72;5073937;28;20224;-77
2021/12/06 00:33:21;;;;;;;11.40;8.13;;;;;;;3.27;100.00;98730.31;5073389;28;20312;-77
2021/12/06 00:35:48;;;;;;;13.02;8.15;;;;;;;3.29;100.00;98738.25;5073797;28;20225;-76
2021/12/06 00:38:15;;;;;;;8.90;8.00;;;;;;;3.08;100.00;98748.00;5073649;28;20298;-77
2021/12/06 00:40:45;;;;;;;9.40;7.80;;;;;;;3.04;100.00;98754.38;5073256;28;20207;-77
2021/12/06 00:43:12;;;;;;;12.20;9.65;;;;;;;2.96;100.00;98753.78;5073528;28;20262;-77
2021/12/06 00:45:39;;;;;;;12.52;10.23;;;;;;;2.93;100.00;98763.63;5073503;28;20606;-77
2021/12/06 00:48:08;;;;;;;17.73;11.00;;;;;;;2.86;100.00;98762.16;5073493;28;20673;-76
2021/12/06 00:50:39;;;;;;;15.20;10.85;;;;;;;2.72;100.00;98768.03;5073722;28;20292;-77
2021/12/06 00:53:06;;;;;;;13.48;10.63;;;;;;;3.02;100.00;98765.06;5073483;28;20217;-77
2021/12/06 00:55:33;;;;;;;14.90;10.60;;;;;;;3.26;100.00;98765.84;5073106;28;20201;-77
2021/12/06 00:58:00;;;;;;;13.30;10.40;;;;;;;3.48;100.00;98763.16;5072934;28;20228;-77
2021/12/06 01:00:33;;;;;;;12.30;9.50;;;;;;;3.56;100.00;98754.84;5073253;28;20208;-77
2021/12/06 01:03:01;;;;;;;13.07;10.45;;;;;;;3.57;100.00;98763.66;5073242;28;20181;-77
2021/12/06 01:05:29;;;;;;;15.25;12.23;;;;;;;3.69;98.95;98771.16;5073090;28;20292;-77
2021/12/06 01:07:56;;;;;;;15.00;12.05;;;;;;;3.49;97.42;98779.97;5072694;28;20288;-77
2021/12/06 01:10:24;;;;;;;15.15;12.27;;;;;;;3.34;98.58;98779.69;5073153;28;20201;-77
2021/12/06 01:12:52;;;;;;;16.25;11.63;;;;;;;3.46;97.61;98780.09;5072024;28;20301;-76
2021/12/06 01:15:18;;;;;;;14.05;11.65;;;;;;;3.42;98.48;98789.16;5072749;28;20197;-76
2021/12/06 01:17:46;;;;;;;16.15;11.95;;;;;;;3.49;97.89;98786.16;5072491;28;20193;-76
2021/12/06 01:20:18;;;;;;;17.27;11.90;;;;;;;3.33;98.26;98790.41;5072491;28;20283;-76
2021/12/06 01:22:51;;;;;;;12.40;10.10;;;;;;;3.13;99.06;98783.25;5072733;28;20669;-76
2021/12/06 01:25:28;;;;;;;13.55;11.20;;;;;;;3.28;99.58;98792.41;5072620;28;20296;-76
2021/12/06 01:28:34;;;;;;;13.88;12.07;;;;;;;3.47;97.83;98793.34;5072699;28;20236;-76
2021/12/06 01:31:06;;;;;;;19.33;12.25;;;;;;;3.40;97.11;98807.84;5072372;28;20189;-76
2021/12/06 01:34:06;;;;;;;15.35;12.18;;;;;;;3.09;97.93;98816.22;5072097;28;20645;-76
2021/12/06 01:39:24;;;;;;;17.63;13.00;;;;;;;2.83;100.00;98823.44;5072271;28;20207;-76
2021/12/06 01:41:54;;;;;;;14.25;12.60;;;;;;;2.83;100.00;98825.22;5072237;28;20195;-76
2021/12/06 01:44:23;;;;;;;14.95;12.68;;;;;;;2.94;100.00;98831.00;5071934;28;20292;-76
2021/12/06 01:46:53;;;;;;;14.02;12.27;;;;;;;2.82;100.00;98834.97;5072079;28;20185;-76
2021/12/06 01:49:21;;;;;;;14.35;11.43;;;;;;;2.72;100.00;98830.97;5072232;28;20612;-76
2021/12/06 01:51:51;;;;;;;16.48;12.05;;;;;;;2.49;100.00;98832.69;5071985;28;20212;-76
2021/12/06 01:54:20;;;;;;;18.33;12.88;;;;;;;2.27;100.00;98840.59;5072289;28;20673;-76
2021/12/06 01:56:49;;;;;;;17.08;12.98;;;;;;;2.28;100.00;98847.66;5072481;28;20642;-76
2021/12/06 01:59:17;;;;;;;15.93;11.98;;;;;;;2.32;100.00;98845.72;5071607;28;20225;-76
2021/12/06 02:01:43;;;;;;;19.45;12.88;;;;;;;2.19;100.00;98841.78;5072195;28;20185;-76
2021/12/06 02:04:11;;;;;;;17.23;13.07;;;;;;;2.12;100.00;98845.59;5071645;28;20207;-76
2021/12/06 02:06:39;;;;;;;17.98;13.02;;;;;;;2.15;100.00;98845.47;5072037;28;20192;-76
2021/12/06 02:09:08;;;;;;;16.40;12.82;;;;;;;2.03;100.00;98842.31;5072865;28;20189;-76
2021/12/06 02:11:38;;;;;;;18.48;13.63;;;;;;;1.98;100.00;98841.63;5079480;28;20690;-76
2021/12/06 02:14:19;;;;;;;20.63;14.18;;;;;;;2.13;100.00;98840.22;5071703;28;20298;-77
2021/12/06 02:17:02;;;;;;;409.15;187.40;;;;;;;3.10;100.00;98840.09;5071563;28;20207;-76
2021/12/06 02:19:32;;;;;;;291.65;135.40;;;;;;;4.09;100.00;98851.97;5071842;28;20542;-77
2021/12/06 02:22:01;;;;;;;86.53;45.75;;;;;;;4.20;100.00;98859.50;5072100;28;20188;-77
2021/12/06 02:24:30;;;;;;;23.45;14.68;;;;;;;3.43;100.00;98858.28;5071214;28;20233;-76
2021/12/06 02:26:58;;;;;;;17.05;13.25;;;;;;;3.22;100.00;98851.16;5071937;28;20189;-76
2021/12/06 02:29:25;;;;;;;17.20;12.70;;;;;;;2.88;100.00;98858.69;5071666;28;20201;-76
2021/12/06 02:31:52;;;;;;;19.48;12.32;;;;;;;2.82;100.00;98855.38;5071532;28;20661;-76
2021/12/06 02:34:20;;;;;;;16.60;11.85;;;;;;;2.80;100.00;98851.91;5071835;28;20238;-76
2021/12/06 02:36:47;;;;;;;16.25;12.25;;;;;;;2.65;100.00;98858.69;5071317;28;20204;-76
2021/12/06 02:39:21;;;;;;;15.38;12.38;;;;;;;2.24;100.00;98863.75;5071199;28;20252;-77
2021/12/06 02:41:48;;;;;;;16.75;12.32;;;;;;;2.06;100.00;98866.13;5071344;28;20292;-77
2021/12/06 02:44:15;;;;;;;17.02;13.23;;;;;;;2.01;100.00;98861.88;5071654;28;20189;-75
2021/12/06 02:46:42;;;;;;;18.23;12.18;;;;;;;2.02;100.00;98863.63;5071596;28;20205;-76
2021/12/06 02:49:10;;;;;;;15.35;11.23;;;;;;;2.15;100.00;98870.25;5071621;28;20200;-76
2021/12/06 02:51:37;;;;;;;16.75;12.48;;;;;;;2.33;100.00;98863.41;5071146;28;20224;-76
2021/12/06 02:54:04;;;;;;;14.38;11.63;;;;;;;2.71;100.00;98851.38;5071345;28;20232;-77
2021/12/06 02:56:39;;;;;;;13.05;11.48;;;;;;;2.70;98.88;98868.22;5071600;28;20204;-76
2021/12/06 02:59:08;;;;;;;15.07;11.50;;;;;;;2.65;98.44;98867.53;5071410;28;20749;-77
2021/12/06 03:01:38;;;;;;;16.45;13.40;;;;;;;2.47;99.63;98869.09;5071438;28;20297;-77
2021/12/06 03:04:05;;;;;;;14.80;11.95;;;;;;;2.20;100.00;98873.59;5071515;28;20272;-77
2021/12/06 03:06:34;;;;;;;15.90;12.20;;;;;;;2.60;100.00;98879.25;5070976;28;20220;-77
2021/12/06 03:09:06;;;;;;;17.38;12.15;;;;;;;2.85;98.13;98881.84;5071481;28;20202;-77
2021/12/06 03:11:37;;;;;;;17.83;11.43;;;;;;;2.66;97.52;98887.00;5071059;28;20254;-77
2021/12/06 03:14:05;;;;;;;14.88;10.80;;;;;;;2.74;97.15;98889.34;5071082;28;20239;-77
2021/12/06 03:16:32;;;;;;;13.45;11.65;;;;;;;2.53;98.06;98891.03;5071282;28;20620;-77
2021/12/06 03:19:00;;;;;;;15.70;11.63;;;;;;;2.62;98.27;98902.22;5071266;28;20673;-77
2021/12/06 03:21:27;;;;;;;15.43;11.60;;;;;;;2.79;98.33;98908.69;5071307;28;20202;-77
2021/12/06 03:23:55;;;;;;;13.60;11.80;;;;;;;3.04;95.83;98904.16;5071254;28;20261;-76
2021/12/06 03:26:22;;;;;;;15.90;11.80;;;;;;;2.76;96.55;98916.75;5071130;28;20251;-77
2021/12/06 03:28:50;;;;;;;15.73;11.45;;;;;;;2.78;96.67;98914.91;5071228;28;20297;-76
2021/12/06 03:31:18;;;;;;;15.68;12.07;;;;;;;2.61;97.45;98919.06;5070792;28;20295;-76
2021/12/06 03:33:47;;;;;;;14.48;11.73;;;;;;;2.94;97.40;98908.13;5071180;28;20273;-76
2021/12/06 03:36:16;;;;;;;12.65;10.73;;;;;;;3.19;96.33;98917.78;5072548;28;20205;-77
2021/12/06 03:38:43;;;;;;;14.73;10.85;;;;;;;3.35;94.99;98929.59;5074553;28;20185;-77
2021/12/06 03:41:12;;;;;;;14.85;11.27;;;;;;;3.12;94.34;98927.78;5074733;28;20209;-76
2021/12/06 03:43:40;;;;;;;13.63;11.02;;;;;;;2.83;95.65;98940.41;5074282;28;20182;-77
2021/12/06 03:46:08;;;;;;;13.18;10.95;;;;;;;3.03;96.75;98947.66;5074426;28;20193;-76
2021/12/06 03:48:35;;;;;;;13.88;9.82;;;;;;;2.98;95.94;98946.94;5074189;28;20297;-77
2021/12/06 03:51:02;;;;;;;16.85;11.63;;;;;;;2.71;96.72;98946.16;5074171;28;20224;-77
2021/12/06 03:53:29;;;;;;;15.65;12.07;;;;;;;2.49;97.89;98949.63;5074244;28;20288;-77
2021/12/06 03:55:56;;;;;;;14.20;10.80;;;;;;;2.49;98.90;98960.25;5074140;28;20207;-77
2021/12/06 03:58:23;;;;;;;14.15;10.50;;;;;;;2.82;97.97;98951.97;5074455;28;20211;-76
2021/12/06 04:00:50;;;;;;;15.60;11.80;;;;;;;2.90;97.53;98951.69;5074053;28;20205;-77
2021/12/06 04:03:21;;;;;;;14.57;11.80;;;;;;;3.16;96.32;98955.16;5074475;28;20267;-76
2021/12/06 04:05:48;;;;;;;14.63;11.32;;;;;;;3.43;94.64;98958.53;5074362;28;20200;-77
2021/12/06 04:08:15;;;;;;;15.85;12.60;;;;;;;3.57;93.07;98961.50;5073903;28;20212;-76
2021/12/06 04:10:42;;;;;;;17.33;12.40;;;;;;;3.58;92.85;98967.72;5074114;28;20181;-75
2021/12/06 04:13:09;;;;;;;16.77;12.48;;;;;;;3.43;92.84;98963.88;5074203;28;20205;-77
2021/12/06 04:15:38;;;;;;;15.23;12.52;;;;;;;3.22;93.89;98961.13;5074347;28;20188;-77
2021/12/06 04:18:06;;;;;;;15.52;12.07;;;;;;;2.93;95.47;98975.50;5074192;28;20202;-77
2021/12/06 04:20:34;;;;;;;19.75;13.55;;;;;;;3.07;97.04;98978.50;5073811;28;20331;-76
2021/12/06 04:23:01;;;;;;;18.70;13.10;;;;;;;3.22;96.94;98982.41;5074033;28;20638;-76
2021/12/06 04:25:28;;;;;;;17.67;13.45;;;;;;;3.50;96.11;98976.00;5074089;28;20246;-76
2021/12/06 04:27:56;;;;;;;16.17;12.05;;;;;;;3.26;96.09;98978.69;5073693;28;20215;-76
2021/12/06 04:30:25;;;;;;;20.10;14.15;;;;;;;3.50;94.82;98976.84;5073772;28;20636;-77
2021/12/06 04:32:53;;;;;;;17.77;12.40;;;;;;;3.46;93.97;98979.69;5073482;28;20235;-76
2021/12/06 04:35:19;;;;;;;14.35;11.40;;;;;;;3.57;94.51;98972.16;5073885;28;20980;-77
2021/12/06 04:37:48;;;;;;;19.88;12.75;;;;;;;3.52;94.34;98968.81;5074135;28;20235;-76
2021/12/06 04:40:15;;;;;;;17.98;13.27;;;;;;;3.69;94.75;98977.00;5073377;28;20209;-76
2021/12/06 04:42:42;;;;;;;18.65;12.43;;;;;;;3.54;94.92;98980.28;5073827;28;20201;-76
2021/12/06 04:45:11;;;;;;;20.95;12.75;;;;;;;3.52;95.33;98976.81;5073769;28;20186;-76
2021/12/06 04:47:38;;;;;;;19.33;11.52;;;;;;;3.66;94.49;98993.09;5073080;28;20209;-77
2021/12/06 04:50:07;;;;;;;21.20;12.75;;;;;;;3.62;94.74;98994.16;5073175;28;20197;-76
2021/12/06 04:52:34;;;;;;;18.33;12.40;;;;;;;3.36;95.20;99003.16;5073422;28;20186;-76
2021/12/06 04:55:08;;;;;;;19.63;12.93;;;;;;;3.38;95.67;99011.94;5073347;28;20710;-76
2021/12/06 04:57:39;;;;;;;17.23;11.13;;;;;;;3.64;94.58;99007.41;5073486;28;20185;-76
2021/12/06 05:00:14;;;;;;;17.85;11.55;;;;;;;3.70;93.24;99005.34;5073288;28;20551;-76
2021/12/06 05:02:41;;;;;;;17.17;11.43;;;;;;;3.71;93.20;99012.44;5073273;28;20276;-76
2021/12/06 05:05:12;;;;;;;18.52;10.77;;;;;;;3.87;92.58;99014.50;5072977;28;20272;-76
2021/12/06 05:07:42;;;;;;;17.75;11.43;;;;;;;4.08;90.42;99026.94;5073195;28;20181;-76
2021/12/06 05:10:12;;;;;;;19.65;11.52;;;;;;;4.06;89.59;99020.78;5073173;28;20530;-76
2021/12/06 05:12:39;;;;;;;19.73;12.13;;;;;;;3.85;90.92;99025.19;5076993;28;20543;-76
2021/12/06 05:15:08;;;;;;;15.00;10.30;;;;;;;3.91;91.31;99027.63;5086189;28;20702;-76
2021/12/06 05:17:34;;;;;;;17.17;10.88;;;;;;;3.79;91.47;99029.91;5093376;28;20517;-76
2021/12/06 05:20:02;;;;;;;15.68;10.85;;;;;;;3.66;91.45;99040.16;5092808;28;20201;-76
2021/12/06 05:22:29;;;;;;;16.10;11.30;;;;;;;3.75;92.45;99035.38;5093000;28;20669;-76
2021/12/06 05:24:55;;;;;;;17.05;10.45;;;;;;;3.76;92.20;99046.88;5093152;28;20189;-76
2021/12/06 05:27:28;;;;;;;14.30;9.85;;;;;;;3.53;93.51;99043.31;5092602;28;20188;-77
2021/12/06 05:29:58;;;;;;;22.10;12.27;;;;;;;3.71;93.43;99052.38;5086393;28;20190;-76
2021/12/06 05:32:26;;;;;;;14.32;9.80;;;;;;;3.75;93.13;99061.09;5072120;28;20228;-76
2021/12/06 05:35:00;;;;;;;12.13;8.93;;;;;;;3.85;91.88;99066.94;5072504;28;20740;-76
2021/12/06 05:37:27;;;;;;;14.05;10.07;;;;;;;3.90;91.72;99071.16;5072577;28;20185;-76
2021/12/06 05:39:54;;;;;;;13.85;10.27;;;;;;;3.94;91.98;99077.25;5072279;28;20227;-76
2021/12/06 05:42:23;;;;;;;16.48;11.05;;;;;;;3.94;92.15;99080.78;5072311;28;20277;-76
2021/12/06 05:44:50;;;;;;;16.35;10.70;;;;;;;3.99;92.06;99063.75;5072079;28;20188;-76
2021/12/06 05:47:17;;;;;;;12.43;9.48;;;;;;;4.01;91.59;99067.22;5072333;28;20296;-76
2021/12/06 05:49:44;;;;;;;12.15;10.20;;;;;;;4.07;91.30;99066.94;5072233;28;20273;-76
2021/12/06 05:52:11;;;;;;;15.55;10.55;;;;;;;4.05;91.30;99067.03;5072425;28;20196;-76
2021/12/06 05:54:38;;;;;;;14.70;10.40;;;;;;;4.03;91.52;99076.88;5072267;28;20292;-76
2021/12/06 05:57:07;;;;;;;16.05;10.95;;;;;;;3.98;92.06;99073.53;5071770;28;20207;-76
2021/12/06 05:59:35;;;;;;;16.48;10.23;;;;;;;3.83;92.60;99079.47;5068449;28;20216;-77
2021/12/06 06:02:01;;;;;;;15.98;11.13;;;;;;;3.94;93.37;99088.75;5072456;28;20201;-77
2021/12/06 06:04:28;;;;;;;15.30;11.00;;;;;;;4.00;92.88;99089.44;5079236;28;20273;-76
2021/12/06 06:06:55;;;;;;;18.25;11.48;;;;;;;4.12;93.15;99096.97;5079578;28;20635;-76
2021/12/06 06:09:22;;;;;;;15.45;10.65;;;;;;;3.95;93.05;99106.47;5079380;28;20193;-76
2021/12/06 06:11:49;;;;;;;18.83;14.15;;;;;;;4.16;92.96;99103.88;5072741;28;20288;-76
2021/12/06 06:14:16;;;;;;;18.63;10.50;;;;;;;4.26;92.72;99102.59;5067134;28;20189;-76
2021/12/06 06:16:50;;;;;;;20.42;11.60;;;;;;;4.23;91.46;99101.84;5080401;28;20188;-76
2021/12/06 06:19:19;;;;;;;17.58;11.73;;;;;;;4.10;92.80;99112.13;5077861;28;20219;-76
2021/12/06 06:21:47;;;;;;;19.85;11.88;;;;;;;4.13;92.40;99118.19;5080799;28;20254;-77
2021/12/06 06:24:14;;;;;;;19.13;12.63;;;;;;;4.21;92.75;99133.91;5079284;28;20280;-77
2021/12/06 06:26:41;;;;;;;20.95;12.10;;;;;;;4.08;93.03;99140.63;5080785;28;20192;-77
2021/12/06 06:29:10;;;;;;;16.70;11.80;;;;;;;3.98;94.33;99148.13;5080920;28;20538;-77
2021/12/06 06:31:39;;;;;;;20.25;12.70;;;;;;;4.11;94.21;99137.84;5076327;28;20217;-77
2021/12/06 06:34:08;;;;;;;17.70;11.68;;;;;;;4.19;94.09;99138.41;5079393;28;20189;-77
2021/12/06 06:36:35;;;;;;;21.45;12.65;;;;;;;4.23;93.65;99144.47;5080768;28;20191;-77
2021/12/06 06:39:03;;;;;;;19.67;13.63;;;;;;;3.99;95.29;99138.34;5077155;28;20667;-77
2021/12/06 06:41:31;;;;;;;23.33;14.10;;;;;;;4.00;96.64;99132.91;5080248;28;20567;-77
2021/12/06 06:43:58;;;;;;;20.58;14.00;;;;;;;4.03;97.16;99122.16;5076614;28;20226;-77
2021/12/06 06:46:24;;;;;;;19.90;12.00;;;;;;;4.27;95.91;99130.97;5079985;28;20192;-77
2021/12/06 06:48:51;;;;;;;20.65;13.15;;;;;;;4.08;96.34;99129.97;5080671;28;20232;-77
2021/12/06 06:51:20;;;;;;;22.30;13.25;;;;;;;4.16;96.30;99131.41;5079178;28;20606;-77
2021/12/06 06:53:47;;;;;;;20.90;13.30;;;;;;;4.39;94.65;99143.81;5079442;28;20662;-78
2021/12/06 06:56:13;;;;;;;23.17;14.63;;;;;;;4.44;93.99;99151.63;5080804;28;20193;-77
2021/12/06 06:58:40;;;;;;;27.67;15.40;;;;;;;4.44;93.92;99150.78;5079365;28;20196;-75
2021/12/06 07:01:07;;;;;;;22.83;15.70;;;;;;;4.24;94.88;99164.88;5078593;28;20292;-77
2021/12/06 07:03:34;;;;;;;23.45;13.75;;;;;;;4.19;95.25;99175.72;5079063;28;20197;-77
2021/12/06 07:06:00;;;;;;;25.73;16.35;;;;;;;4.32;95.28;99168.09;5079770;28;20178;-77
2021/12/06 07:08:28;;;;;;;23.23;14.35;;;;;;;4.18;94.02;99176.63;5079363;28;20189;-77
2021/12/06 07:10:55;;;;;;;22.77;14.55;;;;;;;4.37;93.21;99172.34;5083506;28;20195;-76
2021/12/06 07:13:26;;;;;;;24.70;14.75;;;;;;;4.48;93.09;99171.06;5083729;28;20181;-75
2021/12/06 07:15:53;;;;;;;22.30;14.93;;;;;;;4.47;91.58;99182.63;5082562;28;20194;-74
2021/12/06 07:18:20;;;;;;;27.83;16.30;;;;;;;4.26;93.18;99187.88;5095006;28;20196;-76
2021/12/06 07:20:47;;;;;;;25.35;16.27;;;;;;;4.41;92.07;99190.88;5095174;28;20205;-76
2021/12/06 07:23:14;;;;;;;23.17;14.82;;;;;;;4.62;89.31;99202.50;5079957;28;20703;-76
2021/12/06 07:25:42;;;;;;;23.83;15.20;;;;;;;4.71;89.04;99208.31;5075406;28;20650;-76
2021/12/06 07:28:09;;;;;;;25.20;16.60;;;;;;;4.65;89.66;99213.88;5082130;28;20196;-75
2021/12/06 07:30:35;;;;;;;24.50;14.30;;;;;;;4.72;89.15;99220.69;5094984;28;20296;-76
2021/12/06 07:33:04;;;;;;;26.40;14.65;;;;;;;4.74;89.69;99212.66;5094047;28;20233;-76
2021/12/06 07:35:31;;;;;;;27.27;16.35;;;;;;;4.75;89.65;99217.94;5094666;28;20718;-76
2021/12/06 07:38:00;;;;;;;24.30;15.40;;;;;;;4.88;88.85;99214.75;5094731;28;20553;-76
2021/12/06 07:40:28;;;;;;;28.05;16.40;;;;;;;4.93;88.41;99215.44;5094872;28;20289;-76
2021/12/06 07:42:56;;;;;;;25.35;16.45;;;;;;;4.92;88.52;99211.91;5094710;28;20193;-76
2021/12/06 07:45:23;;;;;;;25.02;16.75;;;;;;;5.00;87.28;99214.25;5094665;28;20485;-76
2021/12/06 07:47:51;;;;;;;27.45;19.20;;;;;;;4.87;88.56;99213.91;5094455;28;20200;-76
2021/12/06 07:50:20;;;;;;;31.00;19.00;;;;;;;4.87;88.69;99221.03;5094464;28;20637;-76
2021/12/06 07:52:48;;;;;;;36.97;21.40;;;;;;;5.00;87.43;99220.47;5094068;28;20181;-76
2021/12/06 07:55:17;;;;;;;36.03;22.35;;;;;;;4.89;87.97;99221.84;5093785;28;20200;-76
2021/12/06 07:57:44;;;;;;;39.50;22.13;;;;;;;4.81;88.72;99219.47;5093728;28;20619;-76
2021/12/06 08:00:16;;;;;;;39.15;23.17;;;;;;;4.64;89.63;99227.31;5093758;28;20185;-76
2021/12/06 08:02:42;;;;;;;43.17;22.58;;;;;;;4.89;87.99;99211.16;5094365;28;20633;-76
2021/12/06 08:07:54;;;;;;;35.78;19.48;;;;;;;4.96;88.41;99216.19;5094077;28;20226;-75
2021/12/06 08:10:21;;;;;;;31.63;18.27;;;;;;;4.95;88.60;99218.91;5094012;28;20188;-76
2021/12/06 08:12:48;;;;;;;30.73;17.80;;;;;;;5.05;88.03;99216.75;5096568;28;20649;-75
2021/12/06 08:15:16;;;;;;;26.65;15.98;;;;;;;5.23;86.37;99226.63;5093838;28;20223;-75
2021/12/06 08:17:43;;;;;;;32.72;16.75;;;;;;;5.40;84.73;99239.25;5093793;28;20189;-75
2021/12/06 08:20:11;;;;;;;26.75;16.70;;;;;;;5.48;84.12;99239.81;5093563;28;20275;-77
2021/12/06 08:22:38;;;;;;;24.05;16.15;;;;;;;5.35;84.50;99246.59;5093261;28;20204;-74
2021/12/06 08:25:07;;;;;;;28.00;15.95;;;;;;;5.54;83.34;99249.34;5093460;28;20189;-76
2021/12/06 08:27:34;;;;;;;28.48;17.33;;;;;;;5.38;84.42;99247.34;5093472;28;20197;-76
2021/12/06 08:30:01;;;;;;;25.83;16.55;;;;;;;5.49;84.18;99244.19;5097292;28;20312;-73
2021/12/06 08:32:29;;;;;;;32.17;17.88;;;;;;;5.52;84.25;99251.25;5094011;28;20232;-73
2021/12/06 08:34:56;;;;;;;29.15;17.88;;;;;;;5.57;84.28;99247.41;5094076;28;20187;-73
2021/12/06 08:37:22;;;;;;;34.33;19.25;;;;;;;5.67;84.62;99252.38;5093459;28;20200;-74
2021/12/06 08:39:49;;;;;;;35.47;18.90;;;;;;;5.95;82.15;99260.94;5093809;28;20280;-74
2021/12/06 08:42:16;;;;;;;35.95;19.25;;;;;;;5.97;81.63;99255.50;5093945;28;20627;-74
2021/12/06 08:44:42;;;;;;;32.20;19.48;;;;;;;5.97;81.58;99256.41;5093952;28;20204;-75
2021/12/06 08:47:09;;;;;;;36.35;19.40;;;;;;;5.98;80.57;99258.13;5094030;28;20251;-72
2021/12/06 08:49:37;;;;;;;37.55;19.70;;;;;;;5.81;80.53;99269.53;5094070;28;20702;-72
2021/12/06 08:52:05;;;;;;;37.75;21.55;;;;;;;5.72;81.30;99258.38;5096926;28;20295;-76
2021/12/06 08:54:31;;;;;;;38.92;20.15;;;;;;;5.43;82.92;99263.19;5093130;28;20187;-76
2021/12/06 08:57:01;;;;;;;32.35;20.33;;;;;;;5.47;83.20;99259.41;5094359;28;20567;-75
2021/12/06 08:59:28;;;;;;;34.92;20.98;;;;;;;5.34;83.50;99266.25;5093042;28;20501;-75
2021/12/06 09:01:57;;;;;;;36.00;22.10;;;;;;;5.43;83.45;99271.19;5094101;28;20319;-75
2021/12/06 09:04:27;;;;;;;41.08;21.70;;;;;;;5.35;83.31;99274.16;5092728;28;20235;-75
2021/12/06 09:06:58;;;;;;;46.45;26.45;;;;;;;5.30;83.83;99265.50;5092713;28;20201;-76
2021/12/06 09:09:27;;;;;;;33.60;19.27;;;;;;;5.27;84.67;99270.06;5093115;28;20196;-76
2021/12/06 09:11:53;;;;;;;27.27;15.95;;;;;;;5.11;84.97;99268.06;5092970;28;20260;-75
2021/12/06 09:14:20;;;;;;;26.98;16.58;;;;;;;5.23;85.04;99269.34;5092877;28;20615;-74
2021/12/06 09:16:48;;;;;;;27.10;16.98;;;;;;;5.32;84.97;99274.31;5092666;28;20191;-75
2021/12/06 09:19:16;;;;;;;27.67;14.32;;;;;;;5.28;85.38;99274.50;5092300;28;20201;-77
2021/12/06 09:21:44;;;;;;;26.45;14.40;;;;;;;5.23;85.11;99272.88;5092709;28;20227;-75
2021/12/06 09:24:15;;;;;;;26.95;15.38;;;;;;;4.87;86.29;99261.06;5092636;28;20188;-75
2021/12/06 09:26:43;;;;;;;31.52;16.77;;;;;;;4.90;86.94;99274.25;5092598;28;20191;-76
2021/12/06 09:29:10;;;;;;;27.75;16.48;;;;;;;4.81;87.57;99276.34;5092437;28;20306;-76
2021/12/06 09:31:37;;;;;;;28.42;14.18;;;;;;;4.60;88.44;99274.53;5091920;28;20235;-75
2021/12/06 09:34:04;;;;;;;26.38;14.82;;;;;;;4.85;88.29;99276.25;5091464;28;20268;-76
2021/12/06 09:36:31;;;;;;;24.52;13.27;;;;;;;4.86;86.90;99270.88;5092623;28;20296;-76
2021/12/06 09:38:57;;;;;;;21.10;12.45;;;;;;;4.62;88.30;99291.34;5092478;28;20185;-75
2021/12/06 09:41:27;;;;;;;23.65;13.60;;;;;;;4.72;88.23;99292.72;5092359;28;20224;-76
2021/12/06 09:43:56;;;;;;;21.60;11.80;;;;;;;5.07;87.34;99294.94;5092312;28;20234;-76
2021/12/06 09:46:23;;;;;;;23.38;12.75;;;;;;;5.22;85.41;99295.19;5092015;28;20224;-74
2021/12/06 09:48:50;;;;;;;22.13;11.73;;;;;;;5.41;84.34;99294.41;5091920;28;20219;-75
2021/12/06 09:51:21;;;;;;;22.35;12.32;;;;;;;5.46;82.95;99299.56;5092062;28;20283;-74
2021/12/06 09:53:50;;;;;;;22.70;13.70;;;;;;;5.27;82.99;99303.00;5092647;28;20525;-75
2021/12/06 09:56:19;;;;;;;20.20;11.68;;;;;;;5.21;83.14;99304.09;5092206;28;20200;-74
2021/12/06 09:58:47;;;;;;;23.77;13.02;;;;;;;5.22;83.81;99297.84;5092051;28;20656;-76
2021/12/06 10:01:19;;;;;;;21.48;13.05;;;;;;;5.28;83.80;99302.06;5092120;28;20205;-75
2021/12/06 10:03:47;;;;;;;22.83;11.80;;;;;;;5.30;84.19;99294.00;5091784;28;20230;-76
2021/12/06 10:06:14;;;;;;;25.38;12.60;;;;;;;5.39;83.92;99282.94;5091321;28;20530;-76
2021/12/06 10:08:44;;;;;;;19.48;11.18;;;;;;;5.37;84.42;99287.47;5091209;28;20295;-76
2021/12/06 10:11:13;;;;;;;19.05;11.40;;;;;;;5.66;82.51;99277.34;5091649;28;20185;-76
2021/12/06 10:13:40;;;;;;;18.85;10.95;;;;;;;5.75;80.86;99280.47;5091634;28;20208;-76
2021/12/06 10:16:10;;;;;;;14.55;8.70;;;;;;;5.77;79.79;99280.44;5090810;28;20188;-76
2021/12/06 10:18:38;;;;;;;17.42;10.85;;;;;;;5.80;80.35;99273.13;5090946;28;20200;-76
2021/12/06 10:21:05;;;;;;;14.40;9.90;;;;;;;5.87;78.30;99286.22;5091529;28;20662;-74
2021/12/06 10:23:36;;;;;;;14.68;10.18;;;;;;;5.56;78.63;99277.75;5099711;28;20208;-75
2021/12/06 10:26:04;;;;;;;13.38;8.90;;;;;;;5.80;78.04;99275.78;5092061;28;20220;-73
2021/12/06 10:28:31;;;;;;;13.60;8.43;;;;;;;5.74;78.12;99281.41;5092102;28;20194;-73
2021/12/06 10:31:04;;;;;;;13.48;9.13;;;;;;;5.37;78.70;99282.13;5080337;28;20241;-75
2021/12/06 10:33:34;;;;;;;11.88;7.35;;;;;;;5.64;78.09;99286.28;5071228;28;20312;-73
2021/12/06 10:36:06;;;;;;;13.82;8.00;;;;;;;5.74;77.78;99280.53;5072310;28;20186;-72
2021/12/06 10:38:34;;;;;;;12.90;8.48;;;;;;;5.92;77.13;99281.53;5071636;28;20296;-72
2021/12/06 10:41:03;;;;;;;20.52;9.50;;;;;;;6.14;76.14;99279.69;5071593;28;20197;-73
2021/12/06 10:43:31;;;;;;;18.80;10.52;;;;;;;5.79;77.31;99279.41;5072219;28;20549;-72
2021/12/06 10:45:59;;;;;;;15.90;9.95;;;;;;;5.29;80.07;99274.44;5071807;28;20674;-74
2021/12/06 10:48:29;;;;;;;16.45;10.20;;;;;;;5.04;81.98;99279.91;5072324;28;20325;-74
2021/12/06 10:50:59;;;;;;;16.77;9.20;;;;;;;5.09;82.29;99282.38;5071645;28;20193;-74
2021/12/06 10:53:32;;;;;;;12.98;8.10;;;;;;;4.72;83.38;99281.19;5071882;28;20296;-72
2021/12/06 10:55:59;;;;;;;13.00;7.97;;;;;;;5.01;83.26;99275.56;5051763;28;20186;-73
2021/12/06 10:58:28;;;;;;;10.30;7.30;;;;;;;5.49;80.46;99272.72;5051837;28;20202;-74
2021/12/06 11:01:00;;;;;;;13.38;8.00;;;;;;;5.71;79.37;99270.00;5069256;28;20699;-73
2021/12/06 11:03:30;;;;;;;13.02;8.60;;;;;;;5.54;81.39;99273.38;5071701;28;20198;-74
2021/12/06 11:06:02;;;;;;;12.82;8.65;;;;;;;5.61;80.56;99267.72;5071917;28;20202;-73
2021/12/06 11:08:30;;;;;;;13.02;8.55;;;;;;;5.82;79.18;99267.72;5071852;28;20620;-72
2021/12/06 11:10:58;;;;;;;12.90;8.32;;;;;;;6.02;78.58;99273.09;5071542;28;20188;-72
2021/12/06 11:13:28;;;;;;;14.07;9.02;;;;;;;6.04;76.87;99265.88;5071608;28;20229;-74
2021/12/06 11:16:09;;;;;;;14.02;8.45;;;;;;;5.64;78.34;99272.06;5071272;28;20201;-75
2021/12/06 11:18:43;;;;;;;13.15;8.20;;;;;;;5.74;78.71;99270.72;5071269;28;20197;-74
2021/12/06 11:21:22;;;;;;;11.73;8.68;;;;;;;5.97;77.65;99267.09;5071864;28;20190;-74
2021/12/06 11:24:06;;;;;;;14.13;9.40;;;;;;;5.98;77.32;99266.13;5071529;28;20193;-75
2021/12/06 11:26:35;;;;;;;14.98;10.05;;;;;;;5.74;78.65;99277.88;5071341;28;20197;-74
2021/12/06 11:29:08;;;;;;;16.15;10.05;;;;;;;6.04;77.51;99265.00;5071467;28;20608;-74
2021/12/06 11:31:35;;;;;;;18.33;10.88;;;;;;;6.07;76.94;99266.69;5070869;28;20194;-74
2021/12/06 11:34:05;;;;;;;12.93;9.13;;;;;;;5.83;78.65;99254.31;5071618;28;20196;-73
2021/12/06 11:36:34;;;;;;;13.98;8.65;;;;;;;5.75;77.85;99266.25;5071342;28;20201;-73